createdAt,value
2023-04-21T00:01:43.782Z,15.40
2023-04-21T00:04:32.581Z,17.30
2023-04-21T00:07:20.350Z,13.77
2023-04-21T00:10:08.562Z,20.80
2023-04-21T00:12:55.931Z,16.57
2023-04-21T00:15:43.349Z,17.20
2023-04-21T00:18:30.754Z,17.83
2023-04-21T00:21:18.479Z,16.47
2023-04-21T00:24:06.155Z,15.23
2023-04-21T00:26:53.578Z,17.07
2023-04-21T00:29:40.987Z,14.67
2023-04-21T00:32:28.438Z,22.87
2023-04-21T00:35:15.852Z,16.17
2023-04-21T00:38:03.245Z,17.87
2023-04-21T00:40:50.621Z,15.63
2023-04-21T00:43:38.046Z,15.77
2023-04-21T00:46:25.597Z,16.83
2023-04-21T00:49:13.535Z,15.47
2023-04-21T00:52:01.914Z,14.20
2023-04-21T00:54:49.427Z,12.03
2023-04-21T00:57:40.513Z,14.43
2023-04-21T01:00:27.924Z,17.23
2023-04-21T01:03:16.541Z,12.47
2023-04-21T01:06:04.214Z,16.67
2023-04-21T01:08:53.276Z,15.07
2023-04-21T01:11:40.698Z,14.97
2023-04-21T01:14:28.065Z,16.00
2023-04-21T01:17:18.776Z,11.50
2023-04-21T01:20:08.953Z,13.87
2023-04-21T01:22:56.288Z,13.70
2023-04-21T01:25:43.702Z,14.17
2023-04-21T01:28:31.115Z,13.57
2023-04-21T01:31:20.931Z,11.67
2023-04-21T01:34:08.383Z,12.90
2023-04-21T01:36:55.750Z,11.60
2023-04-21T01:39:44.275Z,14.97
2023-04-21T01:42:32.371Z,13.03
2023-04-21T01:45:19.707Z,13.93
2023-04-21T01:48:07.190Z,12.60
2023-04-21T01:50:54.615Z,13.03
2023-04-21T01:53:41.966Z,18.63
2023-04-21T01:56:29.367Z,16.90
2023-04-21T01:59:17.221Z,14.97
2023-04-21T02:02:04.911Z,13.73
2023-04-21T02:04:52.366Z,13.73
2023-04-21T02:07:39.699Z,10.93
2023-04-21T02:10:27.133Z,14.00
2023-04-21T02:13:14.460Z,13.47
2023-04-21T02:16:12.594Z,15.03
2023-04-21T02:19:01.215Z,13.33
2023-04-21T02:21:48.558Z,12.30
2023-04-21T02:24:35.911Z,12.73
2023-04-21T02:27:23.300Z,13.57
2023-04-21T02:30:11.086Z,10.77
2023-04-21T02:32:58.509Z,12.03
2023-04-21T02:35:46.002Z,11.73
2023-04-21T02:38:33.398Z,11.53
2023-04-21T02:41:20.757Z,16.13
2023-04-21T02:44:08.166Z,12.20
2023-04-21T02:46:55.614Z,13.10
2023-04-21T02:49:43.438Z,12.43
2023-04-21T02:52:30.951Z,11.77
2023-04-21T02:55:18.541Z,11.20
2023-04-21T02:58:06.132Z,11.10
2023-04-21T03:00:53.500Z,15.20
2023-04-21T03:03:41.195Z,17.83
2023-04-21T03:06:28.668Z,10.80
2023-04-21T03:09:16.046Z,12.30
2023-04-21T03:12:03.399Z,13.27
2023-04-21T03:14:50.734Z,12.43
2023-04-21T03:17:38.458Z,11.67
2023-04-21T03:20:25.897Z,10.83
2023-04-21T03:23:13.426Z,15.00
2023-04-21T03:26:00.802Z,12.40
2023-04-21T03:28:48.461Z,13.10
2023-04-21T03:31:35.864Z,9.73
2023-04-21T03:34:23.265Z,12.53
2023-04-21T03:37:10.637Z,12.83
2023-04-21T03:39:58.002Z,9.93
2023-04-21T03:42:45.405Z,11.23
2023-04-21T03:45:32.806Z,10.63
2023-04-21T03:48:20.333Z,15.53
2023-04-21T03:51:07.668Z,13.50
2023-04-21T03:53:55.147Z,14.60
2023-04-21T03:56:42.512Z,11.33
2023-04-21T03:59:29.840Z,12.83
2023-04-21T04:02:17.270Z,16.23
2023-04-21T04:05:05.396Z,14.07
2023-04-21T04:07:52.816Z,11.90
2023-04-21T04:10:40.181Z,12.23
2023-04-21T04:13:28.797Z,11.37
2023-04-21T04:16:16.176Z,15.07
2023-04-21T04:19:03.698Z,11.87
2023-04-21T04:21:51.038Z,12.43
2023-04-21T04:24:38.445Z,10.53
2023-04-21T04:27:26.666Z,12.27
2023-04-21T04:30:14.157Z,14.20
2023-04-21T04:33:02.311Z,13.50
2023-04-21T04:35:49.738Z,12.23
2023-04-21T04:38:37.437Z,16.87
2023-04-21T04:41:24.833Z,11.00
2023-04-21T04:44:12.255Z,16.27
2023-04-21T04:46:59.792Z,12.80
2023-04-21T04:49:47.478Z,12.23
2023-04-21T04:52:34.880Z,14.97
2023-04-21T04:55:22.509Z,13.53
2023-04-21T04:58:09.857Z,13.83
2023-04-21T05:00:57.235Z,13.60
2023-04-21T05:03:45.347Z,12.17
2023-04-21T05:06:32.927Z,12.03
2023-04-21T05:09:20.849Z,9.73
2023-04-21T05:12:08.568Z,12.97
2023-04-21T05:14:55.928Z,12.10
2023-04-21T05:17:43.303Z,9.87
2023-04-21T05:20:30.699Z,11.23
2023-04-21T05:23:18.040Z,14.60
2023-04-21T05:26:05.490Z,14.40
2023-04-21T05:28:52.814Z,10.93
2023-04-21T05:31:40.343Z,10.80
2023-04-21T05:34:27.696Z,10.73
2023-04-21T05:37:15.077Z,11.00
2023-04-21T05:40:02.427Z,11.73
2023-04-21T05:42:49.847Z,14.13
2023-04-21T05:45:40.682Z,11.73
2023-04-21T05:48:28.692Z,10.67
2023-04-21T05:51:16.289Z,11.80
2023-04-21T05:54:03.715Z,11.07
2023-04-21T05:56:51.079Z,10.23
2023-04-21T05:59:38.433Z,12.57
2023-04-21T06:02:25.961Z,9.07
2023-04-21T06:05:13.383Z,14.27
2023-04-21T06:08:00.847Z,10.13
2023-04-21T06:10:48.223Z,10.03
2023-04-21T06:13:37.978Z,10.43
2023-04-21T06:16:26.977Z,10.40
2023-04-21T06:19:14.444Z,10.20
2023-04-21T06:22:01.805Z,10.97
2023-04-21T06:24:49.183Z,10.27
2023-04-21T06:27:36.525Z,11.33
2023-04-21T06:30:23.998Z,8.83
2023-04-21T06:33:11.418Z,12.03
2023-04-21T06:35:58.883Z,11.80
2023-04-21T06:38:46.277Z,13.20
2023-04-21T06:41:33.633Z,9.57
2023-04-21T06:44:21.309Z,11.70
2023-04-21T06:47:09.527Z,9.07
2023-04-21T06:49:56.944Z,10.07
2023-04-21T06:52:44.323Z,13.27
2023-04-21T06:55:31.706Z,8.97
2023-04-21T06:58:21.145Z,9.93
2023-04-21T07:01:08.974Z,7.70
2023-04-21T07:03:56.452Z,8.40
2023-04-21T07:06:43.920Z,8.40
2023-04-21T07:09:33.652Z,8.60
2023-04-21T07:12:21.315Z,9.57
2023-04-21T07:15:09.168Z,8.80
2023-04-21T07:17:58.762Z,8.77
2023-04-21T07:20:46.336Z,7.73
2023-04-21T07:23:33.776Z,9.27
2023-04-21T07:26:21.110Z,14.43
2023-04-21T07:29:08.489Z,13.17
2023-04-21T07:31:56.553Z,10.33
2023-04-21T07:34:46.827Z,9.30
2023-04-21T07:37:34.198Z,7.80
2023-04-21T07:40:21.701Z,8.50
2023-04-21T07:43:09.055Z,6.10
2023-04-21T07:45:56.463Z,11.05
2023-04-21T07:48:45.158Z,8.18
2023-04-21T07:51:32.578Z,7.57
2023-04-21T07:54:19.982Z,8.80
2023-04-21T07:57:07.443Z,9.63
2023-04-21T07:59:54.846Z,9.68
2023-04-21T08:02:42.471Z,9.07
2023-04-21T08:05:33.918Z,8.13
2023-04-21T08:08:23.339Z,10.73
2023-04-21T08:11:11.125Z,10.63
2023-04-21T08:13:58.533Z,7.25
2023-04-21T08:16:46.077Z,8.13
2023-04-21T08:19:33.573Z,7.82
2023-04-21T08:22:21.078Z,8.65
2023-04-21T08:25:08.844Z,7.85
2023-04-21T08:27:56.187Z,8.55
2023-04-21T08:30:43.590Z,8.20
2023-04-21T08:33:30.968Z,8.05
2023-04-21T08:36:28.801Z,8.23
2023-04-21T08:39:17.743Z,12.05
2023-04-21T08:42:05.579Z,9.07
2023-04-21T08:44:53.007Z,7.63
2023-04-21T08:47:41.679Z,9.50
2023-04-21T08:50:30.701Z,12.93
2023-04-21T08:53:18.468Z,9.10
2023-04-21T08:58:56.985Z,9.20
2023-04-21T09:02:11.060Z,10.60
2023-04-21T09:05:00.003Z,8.80
2023-04-21T09:07:47.641Z,10.45
2023-04-21T09:10:35.290Z,10.77
2023-04-21T09:13:29.250Z,7.25
2023-04-21T09:16:18.337Z,7.93
2023-04-21T09:19:14.957Z,10.93
2023-04-21T09:22:02.555Z,9.32
2023-04-21T09:24:50.677Z,8.77
2023-04-21T09:27:38.161Z,8.00
2023-04-21T09:30:25.631Z,9.85
2023-04-21T09:33:28.005Z,9.98
2023-04-21T09:36:22.230Z,12.07
2023-04-21T09:42:02.177Z,9.05
2023-04-21T09:44:53.796Z,9.55
2023-04-21T09:47:51.355Z,12.18
2023-04-21T09:51:20.917Z,7.90
2023-04-21T09:53:48.384Z,7.53
2023-04-21T09:56:41.189Z,9.52
2023-04-21T09:59:38.749Z,13.30
2023-04-21T10:02:27.383Z,9.77
2023-04-21T10:05:14.959Z,11.25
2023-04-21T10:08:02.953Z,8.75
2023-04-21T10:10:52.779Z,9.00
2023-04-21T10:13:41.204Z,9.45
2023-04-21T10:16:28.673Z,7.88
2023-04-21T10:19:26.322Z,8.27
2023-04-21T10:22:13.869Z,10.15
2023-04-21T10:25:02.133Z,10.25
2023-04-21T10:27:49.539Z,6.68
2023-04-21T10:30:36.998Z,9.80
2023-04-21T10:33:24.488Z,8.90
2023-04-21T10:36:14.046Z,8.55
2023-04-21T10:39:03.628Z,8.10
2023-04-21T10:41:51.334Z,8.73
2023-04-21T10:44:42.177Z,9.63
2023-04-21T10:47:31.793Z,8.75
2023-04-21T10:50:22.987Z,11.15
2023-04-21T10:53:13.491Z,11.02
2023-04-21T10:56:00.960Z,9.93
2023-04-21T10:58:50.372Z,11.23
2023-04-21T11:01:40.423Z,10.48
2023-04-21T11:04:28.744Z,11.40
2023-04-21T11:07:23.327Z,8.20
2023-04-21T11:10:11.377Z,9.85
2023-04-21T11:12:58.817Z,12.13
2023-04-21T11:16:02.486Z,9.50
2023-04-21T11:18:49.914Z,12.13
2023-04-21T11:21:37.265Z,9.90
2023-04-21T11:24:24.730Z,8.63
2023-04-21T11:27:14.351Z,8.50
2023-04-21T11:30:03.780Z,10.63
2023-04-21T11:32:56.992Z,6.93
2023-04-21T11:35:44.404Z,9.77
2023-04-21T11:38:41.571Z,8.90
2023-04-21T11:41:28.904Z,9.77
2023-04-21T11:44:31.856Z,7.88
2023-04-21T11:47:20.457Z,8.30
2023-04-21T11:50:09.590Z,10.93
2023-04-21T11:52:56.960Z,7.95
2023-04-21T11:55:47.062Z,9.55
2023-04-21T11:58:34.445Z,13.93
2023-04-21T12:01:22.312Z,9.05
2023-04-21T12:04:14.307Z,10.63
2023-04-21T12:07:02.749Z,11.55
2023-04-21T12:09:53.982Z,10.85
2023-04-21T12:12:42.585Z,10.35
2023-04-21T12:15:30.649Z,9.38
2023-04-21T12:18:18.019Z,14.95
2023-04-21T12:21:05.445Z,8.57
2023-04-21T12:23:52.790Z,14.20
2023-04-21T12:26:40.779Z,9.35
2023-04-21T12:29:28.237Z,11.13
2023-04-21T12:32:15.862Z,8.07
2023-04-21T12:35:05.154Z,11.40
2023-04-21T12:37:52.556Z,8.55
2023-04-21T12:40:39.970Z,10.18
2023-04-21T12:43:27.342Z,7.50
2023-04-21T12:46:14.785Z,9.93
2023-04-21T12:49:03.677Z,9.23
2023-04-21T12:51:51.068Z,9.63
2023-04-21T12:54:38.434Z,8.68
2023-04-21T12:57:25.911Z,10.43
2023-04-21T13:00:14.788Z,11.20
2023-04-21T13:03:02.665Z,11.93
2023-04-21T13:05:50.276Z,10.95
2023-04-21T13:08:37.895Z,10.77
2023-04-21T13:11:25.443Z,10.15
2023-04-21T13:14:13.570Z,10.77
2023-04-21T13:17:01.060Z,10.23
2023-04-21T13:19:48.486Z,8.35
2023-04-21T13:22:35.986Z,13.55
2023-04-21T13:25:23.406Z,11.68
2023-04-21T13:28:11.313Z,9.68
2023-04-21T13:30:58.790Z,9.50
2023-04-21T13:33:46.210Z,10.00
2023-04-21T13:36:33.633Z,7.78
2023-04-21T13:39:21.309Z,8.40
2023-04-21T13:42:08.723Z,9.18
2023-04-21T13:44:56.305Z,10.80
2023-04-21T13:47:44.828Z,10.57
2023-04-21T13:50:32.757Z,9.23
2023-04-21T13:53:21.524Z,8.68
2023-04-21T13:56:10.764Z,8.75
2023-04-21T13:58:59.263Z,11.20
2023-04-21T14:01:47.062Z,8.57
2023-04-21T14:04:34.717Z,8.10
2023-04-21T14:07:23.948Z,7.07
2023-04-21T14:10:12.503Z,8.45
2023-04-21T14:12:59.963Z,8.20
2023-04-21T14:15:47.410Z,10.60
2023-04-21T14:18:34.944Z,12.52
2023-04-21T14:21:22.370Z,10.73
2023-04-21T14:24:10.073Z,8.30
2023-04-21T14:26:57.552Z,7.75
2023-04-21T14:29:45.004Z,10.02
2023-04-21T14:32:32.561Z,9.40
2023-04-21T14:35:19.981Z,11.45
2023-04-21T14:38:08.290Z,9.05
2023-04-21T14:40:55.636Z,10.02
2023-04-21T14:43:42.988Z,9.75
2023-04-21T14:46:30.627Z,10.27
2023-04-21T14:49:18.040Z,9.05
2023-04-21T14:52:05.559Z,9.52
2023-04-21T14:54:53.004Z,10.18
2023-04-21T14:57:40.510Z,8.95
2023-04-21T15:00:29.375Z,13.05
2023-04-21T15:03:16.876Z,9.55
2023-04-21T15:06:04.941Z,10.10
2023-04-21T15:08:52.427Z,8.93
2023-04-21T15:11:39.809Z,7.47
2023-04-21T15:14:27.179Z,9.80
2023-04-21T15:17:14.579Z,7.80
2023-04-21T15:20:02.121Z,9.38
2023-04-21T15:22:49.510Z,8.32
2023-04-21T15:25:36.887Z,8.48
2023-04-21T15:28:24.510Z,8.23
2023-04-21T15:31:11.904Z,7.82
2023-04-21T15:33:59.269Z,6.97
2023-04-21T15:36:46.633Z,8.73
2023-04-21T15:39:34.268Z,9.23
2023-04-21T15:42:21.861Z,7.93
2023-04-21T15:45:09.590Z,9.52
2023-04-21T15:47:57.026Z,8.02
2023-04-21T15:50:45.434Z,7.53
2023-04-21T15:53:34.006Z,7.63
2023-04-21T15:56:21.593Z,7.25
2023-04-21T15:59:09.020Z,8.18
2023-04-21T16:01:59.515Z,13.27
2023-04-21T16:04:47.085Z,7.38
2023-04-21T16:07:34.755Z,8.00
2023-04-21T16:10:22.206Z,7.35
2023-04-21T16:13:09.625Z,9.13
2023-04-21T16:15:57.076Z,6.90
2023-04-21T16:18:44.511Z,6.30
2023-04-21T16:21:31.979Z,6.78
2023-04-21T16:24:19.391Z,5.75
2023-04-21T16:27:06.906Z,8.02
2023-04-21T16:29:54.345Z,7.07
2023-04-21T16:32:41.686Z,6.53
2023-04-21T16:35:29.068Z,7.57
2023-04-21T16:38:16.786Z,7.10
2023-04-21T16:41:04.215Z,6.93
2023-04-21T16:43:51.626Z,10.15
2023-04-21T16:46:39.280Z,5.85
2023-04-21T16:49:26.789Z,8.10
2023-04-21T16:52:14.129Z,6.60
2023-04-21T16:55:02.574Z,7.45
2023-04-21T16:57:49.984Z,7.43
2023-04-21T17:00:38.021Z,7.03
2023-04-21T17:03:27.453Z,6.20
2023-04-21T17:06:19.358Z,6.00
2023-04-21T17:09:07.242Z,6.80
2023-04-21T17:11:54.584Z,4.70
2023-04-21T17:14:41.988Z,7.82
2023-04-21T17:17:34.538Z,8.10
2023-04-21T17:20:21.987Z,6.27
2023-04-21T17:23:09.927Z,7.38
2023-04-21T17:25:57.321Z,15.50
2023-04-21T17:28:44.734Z,6.33
2023-04-21T17:31:33.188Z,9.13
2023-04-21T17:34:20.711Z,8.10
2023-04-21T17:37:08.095Z,9.23
2023-04-21T17:39:55.687Z,7.17
2023-04-21T17:42:43.220Z,8.10
2023-04-21T17:45:31.035Z,8.23
2023-04-21T17:48:18.578Z,10.30
2023-04-21T17:51:06.018Z,11.97
2023-04-21T17:53:53.389Z,7.37
2023-04-21T17:56:40.994Z,6.57
2023-04-21T17:59:28.463Z,7.93
2023-04-21T18:02:15.955Z,7.70
2023-04-21T18:05:04.614Z,7.87
2023-04-21T18:07:51.998Z,7.70
2023-04-21T18:10:39.452Z,8.70
2023-04-21T18:13:26.964Z,6.40
2023-04-21T18:16:14.323Z,8.00
2023-04-21T18:19:01.907Z,8.57
2023-04-21T18:21:49.250Z,6.53
2023-04-21T18:24:36.804Z,7.43
2023-04-21T18:27:24.340Z,6.33
2023-04-21T18:30:11.868Z,6.50
2023-04-21T18:32:59.248Z,6.50
2023-04-21T18:35:46.691Z,9.17
2023-04-21T18:38:34.098Z,9.53
2023-04-21T18:41:21.432Z,9.60
2023-04-21T18:44:08.781Z,8.90
2023-04-21T18:46:56.389Z,6.80
2023-04-21T18:49:45.089Z,9.97
2023-04-21T18:52:32.453Z,6.60
2023-04-21T18:55:19.882Z,7.17
2023-04-21T18:58:07.212Z,8.10
2023-04-21T19:00:54.829Z,7.60
2023-04-21T19:03:42.799Z,5.33
2023-04-21T19:06:30.755Z,5.50
2023-04-21T19:09:18.259Z,7.43
2023-04-21T19:12:05.700Z,8.80
2023-04-21T19:14:53.360Z,5.93
2023-04-21T19:17:41.301Z,6.27
2023-04-21T19:20:29.209Z,7.03
2023-04-21T19:23:16.570Z,6.27
2023-04-21T19:26:05.036Z,6.57
2023-04-21T19:28:52.437Z,6.53
2023-04-21T19:31:39.824Z,8.17
2023-04-21T19:34:27.213Z,4.43
2023-04-21T19:37:15.044Z,7.80
2023-04-21T19:40:03.053Z,9.43
2023-04-21T19:42:50.489Z,6.60
2023-04-21T19:45:38.064Z,8.13
2023-04-21T19:48:26.460Z,5.73
2023-04-21T19:51:13.964Z,9.60
2023-04-21T19:54:10.837Z,6.97
2023-04-21T19:56:59.611Z,5.70
2023-04-21T19:59:48.853Z,10.73
2023-04-21T20:02:36.698Z,5.47
2023-04-21T20:05:24.115Z,8.67
2023-04-21T20:08:11.546Z,7.17
2023-04-21T20:10:58.884Z,13.37
2023-04-21T20:13:46.240Z,8.10
2023-04-21T20:16:34.150Z,8.40
2023-04-21T20:19:22.810Z,7.70
2023-04-21T20:22:10.149Z,8.60
2023-04-21T20:24:58.051Z,7.53
2023-04-21T20:27:45.693Z,7.80
2023-04-21T20:30:33.033Z,7.40
2023-04-21T20:33:20.369Z,6.77
2023-04-21T20:36:08.476Z,6.93
2023-04-21T20:38:57.165Z,9.03
2023-04-21T20:41:45.655Z,7.30
2023-04-21T20:44:33.099Z,4.77
2023-04-21T20:47:21.739Z,10.80
2023-04-21T20:50:09.838Z,5.60
2023-04-21T20:52:57.953Z,5.30
2023-04-21T20:55:45.385Z,7.83
2023-04-21T20:58:32.771Z,4.53
2023-04-21T21:01:20.269Z,8.97
2023-04-21T21:04:08.364Z,6.83
2023-04-21T21:06:56.004Z,9.57
2023-04-21T21:09:43.410Z,5.03
2023-04-21T21:12:30.729Z,7.77
2023-04-21T21:15:18.179Z,4.27
2023-04-21T21:18:05.663Z,9.80
2023-04-21T21:20:53.081Z,5.33
2023-04-21T21:23:42.200Z,8.47
2023-04-21T21:26:29.630Z,7.30
2023-04-21T21:29:17.031Z,6.57
2023-04-21T21:32:04.470Z,7.13
2023-04-21T21:34:52.155Z,8.77
2023-04-21T21:37:39.923Z,6.70
2023-04-21T21:40:27.321Z,8.13
2023-04-21T21:43:16.121Z,9.73
2023-04-21T21:46:03.543Z,6.13
2023-04-21T21:48:50.893Z,7.00
2023-04-21T21:51:38.272Z,7.87
2023-04-21T21:54:25.807Z,5.47
2023-04-21T21:57:13.208Z,6.20
2023-04-21T22:00:01.758Z,6.83
2023-04-21T22:02:49.240Z,5.23
2023-04-21T22:05:36.606Z,5.70
2023-04-21T22:08:23.944Z,6.27
2023-04-21T22:11:11.493Z,4.20
2023-04-21T22:14:05.158Z,6.87
2023-04-21T22:17:02.856Z,6.70
2023-04-21T22:19:50.248Z,5.43
2023-04-21T22:22:37.589Z,5.77
2023-04-21T22:25:27.041Z,5.13
2023-04-21T22:28:14.477Z,4.50
2023-04-21T22:31:01.853Z,4.77
2023-04-21T22:33:49.407Z,3.80
2023-04-21T22:36:37.134Z,6.83
2023-04-21T22:39:24.586Z,4.13
2023-04-21T22:42:12.003Z,6.40
2023-04-21T22:45:01.371Z,5.13
2023-04-21T22:47:49.247Z,5.63
2023-04-21T22:50:36.651Z,6.13
2023-04-21T22:53:24.005Z,6.50
2023-04-21T22:56:11.355Z,4.70
2023-04-21T22:58:58.778Z,6.97
2023-04-21T23:01:46.253Z,5.23
2023-04-21T23:04:35.150Z,6.53
2023-04-21T23:07:22.549Z,4.87
2023-04-21T23:10:10.141Z,4.60
2023-04-21T23:12:57.799Z,5.47
2023-04-21T23:15:45.139Z,12.50
2023-04-21T23:18:32.611Z,4.10
2023-04-21T23:21:19.956Z,6.53
2023-04-21T23:24:07.489Z,5.50
2023-04-21T23:26:54.904Z,7.23
2023-04-21T23:29:42.507Z,5.10
2023-04-21T23:32:30.055Z,4.40
2023-04-21T23:35:17.578Z,3.47
2023-04-21T23:38:04.960Z,4.00
2023-04-21T23:40:52.295Z,5.33
2023-04-21T23:43:39.706Z,5.27
2023-04-21T23:46:27.130Z,9.17
2023-04-21T23:49:14.576Z,5.33
2023-04-21T23:52:01.948Z,7.50
2023-04-21T23:54:49.365Z,5.23
2023-04-21T23:57:36.988Z,4.10
